sensor_id;sensor_type;location;lat;lon;timestamp;temperature;humidity
12386;DHT22;6257;57.634;18.310;2022-07-29T00:00:58;10.00;99.90
12386;DHT22;6257;57.634;18.310;2022-07-29T00:03:26;10.00;99.90
12386;DHT22;6257;57.634;18.310;2022-07-29T00:05:53;10.00;99.90
12386;DHT22;6257;57.634;18.310;2022-07-29T00:08:20;9.90;99.90
12386;DHT22;6257;57.634;18.310;2022-07-29T00:10:49;9.80;99.90
12386;DHT22;6257;57.634;18.310;2022-07-29T00:13:16;9.80;99.90
12386;DHT22;6257;57.634;18.310;2022-07-29T00:15:43;9.80;99.90
12386;DHT22;6257;57.634;18.310;2022-07-29T00:18:10;9.80;99.90
12386;DHT22;6257;57.634;18.310;2022-07-29T00:20:37;9.80;99.90
12386;DHT22;6257;57.634;18.310;2022-07-29T00:23:04;9.80;99.90
12386;DHT22;6257;57.634;18.310;2022-07-29T00:25:31;9.80;99.90
12386;DHT22;6257;57.634;18.310;2022-07-29T00:28:00;9.80;99.90
12386;DHT22;6257;57.634;18.310;2022-07-29T00:30:27;9.80;99.90
12386;DHT22;6257;57.634;18.310;2022-07-29T00:32:54;9.70;99.90
12386;DHT22;6257;57.634;18.310;2022-07-29T00:35:21;9.70;99.90
12386;DHT22;6257;57.634;18.310;2022-07-29T00:38:05;9.70;99.90
12386;DHT22;6257;57.634;18.310;2022-07-29T00:40:32;9.60;99.90
12386;DHT22;6257;57.634;18.310;2022-07-29T00:43:01;9.60;99.90
12386;DHT22;6257;57.634;18.310;2022-07-29T00:45:28;9.60;99.90
12386;DHT22;6257;57.634;18.310;2022-07-29T00:47:55;9.60;99.90
12386;DHT22;6257;57.634;18.310;2022-07-29T00:50:23;10.30;99.90
12386;DHT22;6257;57.634;18.310;2022-07-29T00:52:51;9.60;99.90
12386;DHT22;6257;57.634;18.310;2022-07-29T00:55:18;9.60;99.90
12386;DHT22;6257;57.634;18.310;2022-07-29T00:57:46;9.60;99.90
12386;DHT22;6257;57.634;18.310;2022-07-29T01:00:17;9.60;99.90
12386;DHT22;6257;57.634;18.310;2022-07-29T01:02:44;9.60;99.90
12386;DHT22;6257;57.634;18.310;2022-07-29T01:05:14;9.60;99.90
12386;DHT22;6257;57.634;18.310;2022-07-29T01:07:42;9.60;99.90
12386;DHT22;6257;57.634;18.310;2022-07-29T01:10:09;9.60;99.90
12386;DHT22;6257;57.634;18.310;2022-07-29T01:12:39;9.50;99.90
12386;DHT22;6257;57.634;18.310;2022-07-29T01:15:07;9.50;99.90
12386;DHT22;6257;57.634;18.310;2022-07-29T01:17:42;9.40;99.90
12386;DHT22;6257;57.634;18.310;2022-07-29T01:20:13;9.40;99.90
12386;DHT22;6257;57.634;18.310;2022-07-29T01:23:13;9.40;99.90
12386;DHT22;6257;57.634;18.310;2022-07-29T01:28:59;9.50;99.90
12386;DHT22;6257;57.634;18.310;2022-07-29T01:31:33;9.50;99.90
12386;DHT22;6257;57.634;18.310;2022-07-29T01:34:05;9.40;99.90
12386;DHT22;6257;57.634;18.310;2022-07-29T01:36:37;9.40;99.90
12386;DHT22;6257;57.634;18.310;2022-07-29T01:39:10;9.40;99.90
12386;DHT22;6257;57.634;18.310;2022-07-29T01:41:42;9.50;99.90
12386;DHT22;6257;57.634;18.310;2022-07-29T01:44:18;9.50;99.90
12386;DHT22;6257;57.634;18.310;2022-07-29T01:46:52;9.50;99.90
12386;DHT22;6257;57.634;18.310;2022-07-29T01:49:25;9.50;99.90
12386;DHT22;6257;57.634;18.310;2022-07-29T01:51:57;9.50;99.90
12386;DHT22;6257;57.634;18.310;2022-07-29T01:54:30;9.50;99.90
12386;DHT22;6257;57.634;18.310;2022-07-29T01:57:00;9.50;99.90
12386;DHT22;6257;57.634;18.310;2022-07-29T01:59:30;9.50;99.90
12386;DHT22;6257;57.634;18.310;2022-07-29T02:02:01;9.50;99.90
12386;DHT22;6257;57.634;18.310;2022-07-29T02:04:29;9.50;99.90
12386;DHT22;6257;57.634;18.310;2022-07-29T02:07:01;9.50;99.90
12386;DHT22;6257;57.634;18.310;2022-07-29T02:09:30;9.50;99.90
12386;DHT22;6257;57.634;18.310;2022-07-29T02:11:59;9.50;99.90
12386;DHT22;6257;57.634;18.310;2022-07-29T02:14:33;9.50;99.90
12386;DHT22;6257;57.634;18.310;2022-07-29T02:17:02;9.50;99.90
12386;DHT22;6257;57.634;18.310;2022-07-29T02:19:31;9.50;99.90
12386;DHT22;6257;57.634;18.310;2022-07-29T02:21:59;9.50;99.90
12386;DHT22;6257;57.634;18.310;2022-07-29T02:24:28;9.40;99.90
12386;DHT22;6257;57.634;18.310;2022-07-29T02:26:56;9.40;99.90
12386;DHT22;6257;57.634;18.310;2022-07-29T02:29:28;9.40;99.90
12386;DHT22;6257;57.634;18.310;2022-07-29T02:31:57;9.40;99.90
12386;DHT22;6257;57.634;18.310;2022-07-29T02:34:26;9.40;99.90
12386;DHT22;6257;57.634;18.310;2022-07-29T02:36:54;9.30;99.90
12386;DHT22;6257;57.634;18.310;2022-07-29T02:39:23;9.40;99.90
12386;DHT22;6257;57.634;18.310;2022-07-29T02:41:54;9.40;99.90
12386;DHT22;6257;57.634;18.310;2022-07-29T02:44:24;9.40;99.90
12386;DHT22;6257;57.634;18.310;2022-07-29T02:46:59;9.50;99.90
12386;DHT22;6257;57.634;18.310;2022-07-29T02:49:34;9.50;99.90
12386;DHT22;6257;57.634;18.310;2022-07-29T02:52:03;9.60;99.90
12386;DHT22;6257;57.634;18.310;2022-07-29T02:54:38;9.60;99.90
12386;DHT22;6257;57.634;18.310;2022-07-29T02:57:11;9.70;99.90
12386;DHT22;6257;57.634;18.310;2022-07-29T02:59:42;9.70;99.90
12386;DHT22;6257;57.634;18.310;2022-07-29T03:02:13;9.70;99.90
12386;DHT22;6257;57.634;18.310;2022-07-29T03:04:43;9.70;99.90
12386;DHT22;6257;57.634;18.310;2022-07-29T03:07:13;9.70;99.90
12386;DHT22;6257;57.634;18.310;2022-07-29T03:09:42;9.80;99.90
12386;DHT22;6257;57.634;18.310;2022-07-29T03:12:11;9.80;99.90
12386;DHT22;6257;57.634;18.310;2022-07-29T03:14:39;9.80;99.90
12386;DHT22;6257;57.634;18.310;2022-07-29T03:17:07;9.90;99.90
12386;DHT22;6257;57.634;18.310;2022-07-29T03:19:37;9.80;99.90
12386;DHT22;6257;57.634;18.310;2022-07-29T03:22:05;9.90;99.90
12386;DHT22;6257;57.634;18.310;2022-07-29T03:24:34;9.90;99.90
12386;DHT22;6257;57.634;18.310;2022-07-29T03:27:01;10.00;99.90
12386;DHT22;6257;57.634;18.310;2022-07-29T03:29:29;10.00;99.90
12386;DHT22;6257;57.634;18.310;2022-07-29T03:31:56;10.10;99.90
12386;DHT22;6257;57.634;18.310;2022-07-29T03:34:23;10.10;99.90
12386;DHT22;6257;57.634;18.310;2022-07-29T03:36:52;10.20;99.90
12386;DHT22;6257;57.634;18.310;2022-07-29T03:39:23;10.30;99.90
12386;DHT22;6257;57.634;18.310;2022-07-29T03:41:54;10.30;99.90
12386;DHT22;6257;57.634;18.310;2022-07-29T03:44:22;10.40;99.90
12386;DHT22;6257;57.634;18.310;2022-07-29T03:46:51;10.50;99.90
12386;DHT22;6257;57.634;18.310;2022-07-29T03:49:22;10.60;99.90
12386;DHT22;6257;57.634;18.310;2022-07-29T03:51:51;10.60;99.90
12386;DHT22;6257;57.634;18.310;2022-07-29T03:54:19;10.70;99.90
12386;DHT22;6257;57.634;18.310;2022-07-29T03:56:47;10.80;99.90
12386;DHT22;6257;57.634;18.310;2022-07-29T03:59:18;10.90;99.90
12386;DHT22;6257;57.634;18.310;2022-07-29T04:01:47;11.00;99.90
12386;DHT22;6257;57.634;18.310;2022-07-29T04:04:15;11.10;99.90
12386;DHT22;6257;57.634;18.310;2022-07-29T04:06:44;11.30;99.90
12386;DHT22;6257;57.634;18.310;2022-07-29T04:09:12;11.40;99.90
12386;DHT22;6257;57.634;18.310;2022-07-29T04:11:41;11.50;99.90
12386;DHT22;6257;57.634;18.310;2022-07-29T04:14:08;11.60;99.90
12386;DHT22;6257;57.634;18.310;2022-07-29T04:16:35;11.70;99.90
12386;DHT22;6257;57.634;18.310;2022-07-29T04:19:02;11.80;99.90
12386;DHT22;6257;57.634;18.310;2022-07-29T04:21:29;12.00;99.90
12386;DHT22;6257;57.634;18.310;2022-07-29T04:23:56;12.20;99.90
12386;DHT22;6257;57.634;18.310;2022-07-29T04:26:24;12.40;99.90
12386;DHT22;6257;57.634;18.310;2022-07-29T04:28:51;12.50;99.90
12386;DHT22;6257;57.634;18.310;2022-07-29T04:31:18;12.60;99.90
12386;DHT22;6257;57.634;18.310;2022-07-29T04:33:46;12.80;99.90
12386;DHT22;6257;57.634;18.310;2022-07-29T04:36:13;12.90;99.90
12386;DHT22;6257;57.634;18.310;2022-07-29T04:38:40;13.00;99.90
12386;DHT22;6257;57.634;18.310;2022-07-29T04:41:07;13.10;99.90
12386;DHT22;6257;57.634;18.310;2022-07-29T04:43:36;13.20;99.90
12386;DHT22;6257;57.634;18.310;2022-07-29T04:46:03;13.30;99.90
12386;DHT22;6257;57.634;18.310;2022-07-29T04:48:30;13.30;99.90
12386;DHT22;6257;57.634;18.310;2022-07-29T04:50:57;13.40;99.90
12386;DHT22;6257;57.634;18.310;2022-07-29T04:53:25;13.50;99.90
12386;DHT22;6257;57.634;18.310;2022-07-29T04:55:52;13.50;99.90
12386;DHT22;6257;57.634;18.310;2022-07-29T04:58:19;13.50;99.90
12386;DHT22;6257;57.634;18.310;2022-07-29T05:00:50;13.50;99.90
12386;DHT22;6257;57.634;18.310;2022-07-29T05:03:17;13.60;99.90
12386;DHT22;6257;57.634;18.310;2022-07-29T05:05:44;13.70;99.90
12386;DHT22;6257;57.634;18.310;2022-07-29T05:08:11;13.80;99.90
12386;DHT22;6257;57.634;18.310;2022-07-29T05:10:38;13.90;99.90
12386;DHT22;6257;57.634;18.310;2022-07-29T05:13:05;14.00;99.90
12386;DHT22;6257;57.634;18.310;2022-07-29T05:15:33;14.00;99.90
12386;DHT22;6257;57.634;18.310;2022-07-29T05:18:02;14.20;99.90
12386;DHT22;6257;57.634;18.310;2022-07-29T05:20:30;14.30;99.90
12386;DHT22;6257;57.634;18.310;2022-07-29T05:22:59;14.50;99.90
12386;DHT22;6257;57.634;18.310;2022-07-29T05:25:27;14.60;99.90
12386;DHT22;6257;57.634;18.310;2022-07-29T05:27:55;14.70;99.90
12386;DHT22;6257;57.634;18.310;2022-07-29T05:30:23;14.80;99.90
12386;DHT22;6257;57.634;18.310;2022-07-29T05:32:50;14.80;99.90
12386;DHT22;6257;57.634;18.310;2022-07-29T05:35:18;14.90;99.90
12386;DHT22;6257;57.634;18.310;2022-07-29T05:37:45;15.00;99.90
12386;DHT22;6257;57.634;18.310;2022-07-29T05:40:12;15.10;99.90
12386;DHT22;6257;57.634;18.310;2022-07-29T05:42:39;15.20;99.90
12386;DHT22;6257;57.634;18.310;2022-07-29T05:45:07;15.20;99.90
12386;DHT22;6257;57.634;18.310;2022-07-29T05:47:34;15.40;99.90
12386;DHT22;6257;57.634;18.310;2022-07-29T05:50:01;15.40;99.90
12386;DHT22;6257;57.634;18.310;2022-07-29T05:52:31;15.50;99.90
12386;DHT22;6257;57.634;18.310;2022-07-29T05:54:58;15.30;99.90
12386;DHT22;6257;57.634;18.310;2022-07-29T05:57:28;15.70;99.90
12386;DHT22;6257;57.634;18.310;2022-07-29T05:59:55;15.80;99.90
12386;DHT22;6257;57.634;18.310;2022-07-29T06:02:22;15.90;99.90
12386;DHT22;6257;57.634;18.310;2022-07-29T06:04:49;16.00;99.90
12386;DHT22;6257;57.634;18.310;2022-07-29T06:07:16;16.10;99.90
12386;DHT22;6257;57.634;18.310;2022-07-29T06:09:45;16.20;99.90
12386;DHT22;6257;57.634;18.310;2022-07-29T06:12:12;16.30;99.90
12386;DHT22;6257;57.634;18.310;2022-07-29T06:14:40;16.30;99.90
12386;DHT22;6257;57.634;18.310;2022-07-29T06:17:07;16.40;99.90
12386;DHT22;6257;57.634;18.310;2022-07-29T06:19:35;16.50;99.90
12386;DHT22;6257;57.634;18.310;2022-07-29T06:22:03;16.50;99.90
12386;DHT22;6257;57.634;18.310;2022-07-29T06:24:30;16.70;99.90
12386;DHT22;6257;57.634;18.310;2022-07-29T06:26:59;16.70;99.90
12386;DHT22;6257;57.634;18.310;2022-07-29T06:29:26;16.80;99.90
12386;DHT22;6257;57.634;18.310;2022-07-29T06:31:53;16.90;99.90
12386;DHT22;6257;57.634;18.310;2022-07-29T06:34:20;17.00;99.90
12386;DHT22;6257;57.634;18.310;2022-07-29T06:36:47;17.00;99.90
12386;DHT22;6257;57.634;18.310;2022-07-29T06:39:15;17.10;99.90
12386;DHT22;6257;57.634;18.310;2022-07-29T06:41:46;17.10;99.90
12386;DHT22;6257;57.634;18.310;2022-07-29T06:44:16;17.20;99.90
12386;DHT22;6257;57.634;18.310;2022-07-29T06:46:43;17.20;99.90
12386;DHT22;6257;57.634;18.310;2022-07-29T06:49:12;17.30;99.90
12386;DHT22;6257;57.634;18.310;2022-07-29T06:51:39;17.40;99.90
12386;DHT22;6257;57.634;18.310;2022-07-29T06:54:06;17.50;99.90
12386;DHT22;6257;57.634;18.310;2022-07-29T06:56:34;17.50;99.90
12386;DHT22;6257;57.634;18.310;2022-07-29T06:59:03;17.60;99.90
12386;DHT22;6257;57.634;18.310;2022-07-29T07:01:31;17.70;99.90
12386;DHT22;6257;57.634;18.310;2022-07-29T07:03:59;17.80;99.90
12386;DHT22;6257;57.634;18.310;2022-07-29T07:06:26;17.90;99.90
12386;DHT22;6257;57.634;18.310;2022-07-29T07:08:53;18.00;99.90
12386;DHT22;6257;57.634;18.310;2022-07-29T07:11:20;18.10;99.90
12386;DHT22;6257;57.634;18.310;2022-07-29T07:13:47;18.20;99.90
12386;DHT22;6257;57.634;18.310;2022-07-29T07:16:14;18.30;99.90
12386;DHT22;6257;57.634;18.310;2022-07-29T07:18:43;18.40;99.90
12386;DHT22;6257;57.634;18.310;2022-07-29T07:21:10;18.50;99.90
12386;DHT22;6257;57.634;18.310;2022-07-29T07:23:37;18.70;99.90
12386;DHT22;6257;57.634;18.310;2022-07-29T07:26:05;19.00;99.90
12386;DHT22;6257;57.634;18.310;2022-07-29T07:28:32;19.20;99.90
12386;DHT22;6257;57.634;18.310;2022-07-29T07:30:59;19.40;99.90
12386;DHT22;6257;57.634;18.310;2022-07-29T07:33:26;19.50;99.90
12386;DHT22;6257;57.634;18.310;2022-07-29T07:35:55;19.60;99.90
12386;DHT22;6257;57.634;18.310;2022-07-29T07:38:22;19.80;99.90
12386;DHT22;6257;57.634;18.310;2022-07-29T07:40:49;20.00;99.90
12386;DHT22;6257;57.634;18.310;2022-07-29T07:43:16;20.20;99.90
12386;DHT22;6257;57.634;18.310;2022-07-29T07:45:43;20.30;99.90
12386;DHT22;6257;57.634;18.310;2022-07-29T07:48:10;20.40;99.90
12386;DHT22;6257;57.634;18.310;2022-07-29T07:50:37;20.40;99.90
12386;DHT22;6257;57.634;18.310;2022-07-29T07:53:05;20.00;99.90
12386;DHT22;6257;57.634;18.310;2022-07-29T07:55:33;19.90;99.90
12386;DHT22;6257;57.634;18.310;2022-07-29T07:58:00;19.80;99.90
12386;DHT22;6257;57.634;18.310;2022-07-29T08:00:27;19.60;99.90
12386;DHT22;6257;57.634;18.310;2022-07-29T08:02:54;19.60;99.90
12386;DHT22;6257;57.634;18.310;2022-07-29T08:05:21;19.60;99.90
12386;DHT22;6257;57.634;18.310;2022-07-29T08:07:48;20.00;99.90
12386;DHT22;6257;57.634;18.310;2022-07-29T08:10:19;20.00;99.90
12386;DHT22;6257;57.634;18.310;2022-07-29T08:13:02;19.80;99.90
12386;DHT22;6257;57.634;18.310;2022-07-29T08:15:29;19.50;99.90
12386;DHT22;6257;57.634;18.310;2022-07-29T08:17:56;19.40;99.90
12386;DHT22;6257;57.634;18.310;2022-07-29T08:20:23;19.50;99.90
12386;DHT22;6257;57.634;18.310;2022-07-29T08:22:53;19.60;99.90
12386;DHT22;6257;57.634;18.310;2022-07-29T08:25:21;19.70;99.90
12386;DHT22;6257;57.634;18.310;2022-07-29T08:27:48;21.00;99.90
12386;DHT22;6257;57.634;18.310;2022-07-29T08:30:15;21.10;99.90
12386;DHT22;6257;57.634;18.310;2022-07-29T08:32:42;21.00;99.90
12386;DHT22;6257;57.634;18.310;2022-07-29T08:35:10;20.70;99.90
12386;DHT22;6257;57.634;18.310;2022-07-29T08:37:37;20.60;99.90
12386;DHT22;6257;57.634;18.310;2022-07-29T08:40:05;20.40;99.90
12386;DHT22;6257;57.634;18.310;2022-07-29T08:42:34;20.30;99.90
12386;DHT22;6257;57.634;18.310;2022-07-29T08:45:02;20.20;99.90
12386;DHT22;6257;57.634;18.310;2022-07-29T08:47:29;20.10;99.90
12386;DHT22;6257;57.634;18.310;2022-07-29T08:49:57;19.80;99.90
12386;DHT22;6257;57.634;18.310;2022-07-29T08:52:25;19.50;99.90
12386;DHT22;6257;57.634;18.310;2022-07-29T08:54:53;19.40;99.90
12386;DHT22;6257;57.634;18.310;2022-07-29T08:57:21;19.40;99.90
12386;DHT22;6257;57.634;18.310;2022-07-29T08:59:50;19.40;99.90
12386;DHT22;6257;57.634;18.310;2022-07-29T09:02:20;19.30;99.90
12386;DHT22;6257;57.634;18.310;2022-07-29T09:04:48;19.30;99.90
12386;DHT22;6257;57.634;18.310;2022-07-29T09:07:17;19.20;99.90
12386;DHT22;6257;57.634;18.310;2022-07-29T09:09:44;18.90;99.90
12386;DHT22;6257;57.634;18.310;2022-07-29T09:12:12;18.60;99.90
12386;DHT22;6257;57.634;18.310;2022-07-29T09:14:39;18.50;99.90
12386;DHT22;6257;57.634;18.310;2022-07-29T09:17:08;18.40;99.90
12386;DHT22;6257;57.634;18.310;2022-07-29T09:19:37;18.20;99.90
12386;DHT22;6257;57.634;18.310;2022-07-29T09:22:05;18.00;99.90
12386;DHT22;6257;57.634;18.310;2022-07-29T09:24:43;17.70;99.90
12386;DHT22;6257;57.634;18.310;2022-07-29T09:27:21;17.50;99.90
12386;DHT22;6257;57.634;18.310;2022-07-29T09:29:59;17.50;99.90
12386;DHT22;6257;57.634;18.310;2022-07-29T09:32:28;17.40;99.90
12386;DHT22;6257;57.634;18.310;2022-07-29T09:35:14;17.20;99.90
12386;DHT22;6257;57.634;18.310;2022-07-29T09:37:41;17.10;99.90
12386;DHT22;6257;57.634;18.310;2022-07-29T09:40:13;16.90;99.90
12386;DHT22;6257;57.634;18.310;2022-07-29T09:42:41;16.70;99.90
12386;DHT22;6257;57.634;18.310;2022-07-29T09:45:09;16.70;99.90
12386;DHT22;6257;57.634;18.310;2022-07-29T09:47:45;16.60;99.90
12386;DHT22;6257;57.634;18.310;2022-07-29T09:50:14;16.60;99.90
12386;DHT22;6257;57.634;18.310;2022-07-29T09:52:45;16.50;99.90
12386;DHT22;6257;57.634;18.310;2022-07-29T09:55:13;16.60;99.90
12386;DHT22;6257;57.634;18.310;2022-07-29T09:57:40;16.70;99.90
12386;DHT22;6257;57.634;18.310;2022-07-29T10:00:09;17.00;99.90
12386;DHT22;6257;57.634;18.310;2022-07-29T10:02:38;17.00;99.90
12386;DHT22;6257;57.634;18.310;2022-07-29T10:05:17;17.10;99.90
12386;DHT22;6257;57.634;18.310;2022-07-29T10:07:45;17.00;99.90
12386;DHT22;6257;57.634;18.310;2022-07-29T10:10:19;17.00;99.90
12386;DHT22;6257;57.634;18.310;2022-07-29T10:12:52;17.10;99.90
12386;DHT22;6257;57.634;18.310;2022-07-29T10:15:21;17.30;99.90
12386;DHT22;6257;57.634;18.310;2022-07-29T10:17:49;17.50;99.90
12386;DHT22;6257;57.634;18.310;2022-07-29T10:20:19;17.80;99.90
12386;DHT22;6257;57.634;18.310;2022-07-29T10:22:48;18.10;99.90
12386;DHT22;6257;57.634;18.310;2022-07-29T10:25:16;18.40;99.90
12386;DHT22;6257;57.634;18.310;2022-07-29T10:27:44;18.60;99.90
12386;DHT22;6257;57.634;18.310;2022-07-29T10:30:13;18.80;99.90
12386;DHT22;6257;57.634;18.310;2022-07-29T10:32:56;18.90;99.90
12386;DHT22;6257;57.634;18.310;2022-07-29T10:35:56;18.90;99.90
12386;DHT22;6257;57.634;18.310;2022-07-29T10:38:43;18.80;99.90
12386;DHT22;6257;57.634;18.310;2022-07-29T10:41:43;18.70;99.90
12386;DHT22;6257;57.634;18.310;2022-07-29T10:44:16;18.40;99.90
12386;DHT22;6257;57.634;18.310;2022-07-29T10:46:45;18.40;99.90
12386;DHT22;6257;57.634;18.310;2022-07-29T10:49:13;18.30;99.90
12386;DHT22;6257;57.634;18.310;2022-07-29T10:52:03;18.50;99.90
12386;DHT22;6257;57.634;18.310;2022-07-29T10:54:44;18.70;99.90
12386;DHT22;6257;57.634;18.310;2022-07-29T10:57:23;18.70;99.90
12386;DHT22;6257;57.634;18.310;2022-07-29T11:02:51;18.40;99.90
12386;DHT22;6257;57.634;18.310;2022-07-29T11:05:20;18.30;99.90
12386;DHT22;6257;57.634;18.310;2022-07-29T11:08:22;18.20;99.90
12386;DHT22;6257;57.634;18.310;2022-07-29T11:14:06;18.40;99.90
12386;DHT22;6257;57.634;18.310;2022-07-29T11:17:02;18.60;99.90
12386;DHT22;6257;57.634;18.310;2022-07-29T11:19:29;18.80;99.90
12386;DHT22;6257;57.634;18.310;2022-07-29T11:21:57;18.90;99.90
12386;DHT22;6257;57.634;18.310;2022-07-29T11:24:27;18.80;99.90
12386;DHT22;6257;57.634;18.310;2022-07-29T11:27:07;18.70;99.90
12386;DHT22;6257;57.634;18.310;2022-07-29T11:29:37;18.50;99.90
12386;DHT22;6257;57.634;18.310;2022-07-29T11:32:10;18.50;99.90
12386;DHT22;6257;57.634;18.310;2022-07-29T11:34:37;18.60;99.90
12386;DHT22;6257;57.634;18.310;2022-07-29T11:37:19;18.70;99.90
12386;DHT22;6257;57.634;18.310;2022-07-29T11:40:12;18.80;99.90
12386;DHT22;6257;57.634;18.310;2022-07-29T11:42:46;18.80;99.90
12386;DHT22;6257;57.634;18.310;2022-07-29T11:45:21;18.80;99.90
12386;DHT22;6257;57.634;18.310;2022-07-29T11:47:54;18.90;99.90
12386;DHT22;6257;57.634;18.310;2022-07-29T11:50:36;19.00;99.90
12386;DHT22;6257;57.634;18.310;2022-07-29T11:53:10;19.10;99.90
12386;DHT22;6257;57.634;18.310;2022-07-29T11:55:40;19.20;99.90
12386;DHT22;6257;57.634;18.310;2022-07-29T11:58:08;19.30;99.90
12386;DHT22;6257;57.634;18.310;2022-07-29T12:00:37;19.30;99.90
12386;DHT22;6257;57.634;18.310;2022-07-29T12:03:06;19.30;99.90
12386;DHT22;6257;57.634;18.310;2022-07-29T12:05:36;19.30;99.90
12386;DHT22;6257;57.634;18.310;2022-07-29T12:08:14;19.20;99.90
12386;DHT22;6257;57.634;18.310;2022-07-29T12:10:43;19.20;99.90
12386;DHT22;6257;57.634;18.310;2022-07-29T12:13:12;19.30;99.90
12386;DHT22;6257;57.634;18.310;2022-07-29T12:15:40;19.00;99.90
12386;DHT22;6257;57.634;18.310;2022-07-29T12:18:17;19.10;99.90
12386;DHT22;6257;57.634;18.310;2022-07-29T12:20:46;19.10;99.90
12386;DHT22;6257;57.634;18.310;2022-07-29T12:23:14;19.00;99.90
12386;DHT22;6257;57.634;18.310;2022-07-29T12:25:43;19.10;99.90
12386;DHT22;6257;57.634;18.310;2022-07-29T12:28:12;19.10;99.90
12386;DHT22;6257;57.634;18.310;2022-07-29T12:30:43;19.20;99.90
12386;DHT22;6257;57.634;18.310;2022-07-29T12:33:15;19.20;99.90
12386;DHT22;6257;57.634;18.310;2022-07-29T12:35:46;19.20;99.90
12386;DHT22;6257;57.634;18.310;2022-07-29T12:38:13;19.20;99.90
12386;DHT22;6257;57.634;18.310;2022-07-29T12:40:43;19.30;99.90
12386;DHT22;6257;57.634;18.310;2022-07-29T12:43:12;19.30;99.90
12386;DHT22;6257;57.634;18.310;2022-07-29T12:45:43;19.20;99.90
12386;DHT22;6257;57.634;18.310;2022-07-29T12:48:10;19.30;99.90
12386;DHT22;6257;57.634;18.310;2022-07-29T12:50:53;19.30;99.90
12386;DHT22;6257;57.634;18.310;2022-07-29T12:53:20;19.40;99.90
12386;DHT22;6257;57.634;18.310;2022-07-29T12:55:50;19.40;99.90
12386;DHT22;6257;57.634;18.310;2022-07-29T12:58:28;19.50;99.90
12386;DHT22;6257;57.634;18.310;2022-07-29T13:01:04;19.40;99.90
12386;DHT22;6257;57.634;18.310;2022-07-29T13:03:46;19.50;99.90
12386;DHT22;6257;57.634;18.310;2022-07-29T13:06:30;19.40;99.90
12386;DHT22;6257;57.634;18.310;2022-07-29T13:09:09;19.40;99.90
12386;DHT22;6257;57.634;18.310;2022-07-29T13:11:39;19.40;99.90
12386;DHT22;6257;57.634;18.310;2022-07-29T13:14:08;19.30;99.90
12386;DHT22;6257;57.634;18.310;2022-07-29T13:16:36;19.50;99.90
12386;DHT22;6257;57.634;18.310;2022-07-29T13:19:06;19.50;99.90
12386;DHT22;6257;57.634;18.310;2022-07-29T13:21:33;19.40;99.90
12386;DHT22;6257;57.634;18.310;2022-07-29T13:24:00;19.40;99.90
12386;DHT22;6257;57.634;18.310;2022-07-29T13:26:27;19.40;99.90
12386;DHT22;6257;57.634;18.310;2022-07-29T13:28:56;19.30;99.90
12386;DHT22;6257;57.634;18.310;2022-07-29T13:31:23;19.40;99.90
12386;DHT22;6257;57.634;18.310;2022-07-29T13:33:50;19.40;99.90
12386;DHT22;6257;57.634;18.310;2022-07-29T13:36:17;19.50;99.90
12386;DHT22;6257;57.634;18.310;2022-07-29T13:38:44;19.50;99.90
12386;DHT22;6257;57.634;18.310;2022-07-29T13:41:11;19.50;99.90
12386;DHT22;6257;57.634;18.310;2022-07-29T13:43:38;19.50;99.90
12386;DHT22;6257;57.634;18.310;2022-07-29T13:46:06;19.50;99.90
12386;DHT22;6257;57.634;18.310;2022-07-29T13:48:33;19.60;99.90
12386;DHT22;6257;57.634;18.310;2022-07-29T13:51:01;19.60;99.90
12386;DHT22;6257;57.634;18.310;2022-07-29T13:53:28;19.70;99.90
12386;DHT22;6257;57.634;18.310;2022-07-29T13:55:55;19.70;99.90
12386;DHT22;6257;57.634;18.310;2022-07-29T13:58:22;19.80;99.90
12386;DHT22;6257;57.634;18.310;2022-07-29T14:00:49;19.80;99.90
12386;DHT22;6257;57.634;18.310;2022-07-29T14:03:18;19.80;99.90
12386;DHT22;6257;57.634;18.310;2022-07-29T14:05:45;19.90;99.90
12386;DHT22;6257;57.634;18.310;2022-07-29T14:08:12;19.80;99.90
12386;DHT22;6257;57.634;18.310;2022-07-29T14:10:39;19.80;99.90
12386;DHT22;6257;57.634;18.310;2022-07-29T14:13:06;19.80;99.90
12386;DHT22;6257;57.634;18.310;2022-07-29T14:15:33;19.60;99.90
12386;DHT22;6257;57.634;18.310;2022-07-29T14:18:01;19.60;99.90
12386;DHT22;6257;57.634;18.310;2022-07-29T14:20:30;19.60;99.90
12386;DHT22;6257;57.634;18.310;2022-07-29T14:22:57;19.60;99.90
12386;DHT22;6257;57.634;18.310;2022-07-29T14:25:24;19.70;99.90
12386;DHT22;6257;57.634;18.310;2022-07-29T14:27:51;19.60;99.90
12386;DHT22;6257;57.634;18.310;2022-07-29T14:30:19;19.60;99.90
12386;DHT22;6257;57.634;18.310;2022-07-29T14:32:47;19.50;99.90
12386;DHT22;6257;57.634;18.310;2022-07-29T14:35:14;19.60;99.90
12386;DHT22;6257;57.634;18.310;2022-07-29T14:37:42;19.60;99.90
12386;DHT22;6257;57.634;18.310;2022-07-29T14:40:10;19.60;99.90
12386;DHT22;6257;57.634;18.310;2022-07-29T14:42:38;19.70;99.90
12386;DHT22;6257;57.634;18.310;2022-07-29T14:45:06;19.70;99.90
12386;DHT22;6257;57.634;18.310;2022-07-29T14:47:34;19.80;99.90
12386;DHT22;6257;57.634;18.310;2022-07-29T14:50:01;19.80;99.90
12386;DHT22;6257;57.634;18.310;2022-07-29T14:52:28;19.80;99.90
12386;DHT22;6257;57.634;18.310;2022-07-29T14:54:56;19.80;99.90
12386;DHT22;6257;57.634;18.310;2022-07-29T14:57:23;19.80;99.90
12386;DHT22;6257;57.634;18.310;2022-07-29T14:59:51;19.70;99.90
12386;DHT22;6257;57.634;18.310;2022-07-29T15:02:18;19.70;99.90
12386;DHT22;6257;57.634;18.310;2022-07-29T15:04:45;19.60;99.90
12386;DHT22;6257;57.634;18.310;2022-07-29T15:07:13;19.60;99.90
12386;DHT22;6257;57.634;18.310;2022-07-29T15:09:41;19.60;99.90
12386;DHT22;6257;57.634;18.310;2022-07-29T15:12:09;19.60;99.90
12386;DHT22;6257;57.634;18.310;2022-07-29T15:14:37;19.60;99.90
12386;DHT22;6257;57.634;18.310;2022-07-29T15:17:04;19.50;99.90
12386;DHT22;6257;57.634;18.310;2022-07-29T15:19:31;19.50;99.90
12386;DHT22;6257;57.634;18.310;2022-07-29T15:21:58;19.60;99.90
12386;DHT22;6257;57.634;18.310;2022-07-29T15:24:25;19.60;99.90
12386;DHT22;6257;57.634;18.310;2022-07-29T15:26:53;19.60;99.90
12386;DHT22;6257;57.634;18.310;2022-07-29T15:29:21;19.70;99.90
12386;DHT22;6257;57.634;18.310;2022-07-29T15:31:48;19.70;99.90
12386;DHT22;6257;57.634;18.310;2022-07-29T15:34:16;19.60;99.90
12386;DHT22;6257;57.634;18.310;2022-07-29T15:36:43;19.60;99.90
12386;DHT22;6257;57.634;18.310;2022-07-29T15:39:10;19.60;99.90
12386;DHT22;6257;57.634;18.310;2022-07-29T15:41:37;19.60;99.90
12386;DHT22;6257;57.634;18.310;2022-07-29T15:44:04;19.50;99.90
12386;DHT22;6257;57.634;18.310;2022-07-29T15:46:33;19.50;99.90
12386;DHT22;6257;57.634;18.310;2022-07-29T15:49:17;19.60;99.90
12386;DHT22;6257;57.634;18.310;2022-07-29T15:51:44;19.60;99.90
12386;DHT22;6257;57.634;18.310;2022-07-29T15:54:11;19.50;99.90
12386;DHT22;6257;57.634;18.310;2022-07-29T15:56:38;19.50;99.90
12386;DHT22;6257;57.634;18.310;2022-07-29T15:59:05;19.60;99.90